Station Historical Data
Daily Summary for October 21, 2017 Units:  English    Metric   Both
Next Day »
Daily Weekly Monthly Yearly Custom
  High: Low: Average:
Temperature: 60.5 °F 40.1 °F 48.7 °F
Dew Point: 44.6 °F 31.2 °F 38.2 °F
Humidity: 87% 38% 69%
Wind Speed: 9.0mph 0.0mph 1mph
Wind Gust: 12.0mph - -
Wind- - South
Pressure: 30.35 in 30.19 in -
Precipitation: 0.00 in    
Historical Graphs
 
 
Tabular Data for October 21, 2017
Time Temperature Dew Point Pressure Wind Wind Speed Wind Gust Humidity Rainfall Rate (Hourly) solar Conditions
00:03 41.5 °F 37.9 °F 30.20 in Calm   6.0 mph 87% 0.00 in 0.00 W/m2
00:05 41.5 °F 37.9 °F 30.20 in East 5.0 mph 6.0 mph 87% 0.00 in 0.00 W/m2
00:10 41.5 °F 37.9 °F 30.20 in Calm   5.0 mph 87% 0.00 in 0.00 W/m2
00:15 41.5 °F 37.9 °F 30.20 in Calm     87% 0.00 in 0.00 W/m2
00:20 41.5 °F 37.9 °F 30.20 in Calm     87% 0.00 in 0.00 W/m2
00:25 41.5 °F 37.9 °F 30.20 in Calm   4.0 mph 87% 0.00 in 0.00 W/m2
00:30 41.5 °F 37.6 °F 30.20 in East 1.0 mph 6.0 mph 86% 0.00 in 0.00 W/m2
00:35 41.4 °F 37.5 °F 30.19 in Calm   2.0 mph 86% 0.00 in 0.00 W/m2
00:40 41.4 °F 37.5 °F 30.19 in Calm   5.0 mph 86% 0.00 in 0.00 W/m2
00:45 41.4 °F 37.5 °F 30.20 in East 1.0 mph 6.0 mph 86% 0.00 in 0.00 W/m2
00:50 41.3 °F 37.4 °F 30.20 in East 4.0 mph 5.0 mph 86% 0.00 in 0.00 W/m2
00:55 41.2 °F 37.3 °F 30.20 in Calm   5.0 mph 86% 0.00 in 0.00 W/m2
01:00 41.2 °F 37.3 °F 30.20 in Calm     86% 0.00 in 0.00 W/m2
01:05 41.1 °F 37.2 °F 30.20 in Calm     86% 0.00 in 0.00 W/m2
01:10 41.1 °F 37.2 °F 30.20 in Calm   4.0 mph 86% 0.00 in 0.00 W/m2
01:15 41.1 °F 37.2 °F 30.20 in Calm   6.0 mph 86% 0.00 in 0.00 W/m2
01:20 41.0 °F 37.1 °F 30.20 in East 2.0 mph 2.0 mph 86% 0.00 in 0.00 W/m2
01:25 41.0 °F 37.1 °F 30.20 in East 1.0 mph 5.0 mph 86% 0.00 in 0.00 W/m2
01:30 40.9 °F 37.0 °F 30.20 in East 2.0 mph 6.0 mph 86% 0.00 in 0.00 W/m2
01:35 40.9 °F 37.0 °F 30.21 in East 5.0 mph 6.0 mph 86% 0.00 in 0.00 W/m2
01:40 40.8 °F 36.9 °F 30.21 in Calm   6.0 mph 86% 0.00 in 0.00 W/m2
01:45 40.8 °F 36.9 °F 30.21 in Calm   6.0 mph 86% 0.00 in 0.00 W/m2
01:50 40.8 °F 36.9 °F 30.21 in Calm   4.0 mph 86% 0.00 in 0.00 W/m2
01:55 40.7 °F 36.8 °F 30.21 in East 4.0 mph 5.0 mph 86% 0.00 in 0.00 W/m2
02:00 40.7 °F 36.8 °F 30.21 in Calm   5.0 mph 86% 0.00 in 0.00 W/m2
02:05 40.7 °F 36.8 °F 30.21 in Calm   7.0 mph 86% 0.00 in 0.00 W/m2
02:10 40.7 °F 36.8 °F 30.22 in Calm   7.0 mph 86% 0.00 in 0.00 W/m2
02:15 40.7 °F 36.8 °F 30.21 in Calm   6.0 mph 86% 0.00 in 0.00 W/m2
02:20 40.7 °F 36.8 °F 30.22 in Calm   5.0 mph 86% 0.00 in 0.00 W/m2
02:25 40.6 °F 36.8 °F 30.22 in Calm   5.0 mph 86% 0.00 in 0.00 W/m2
02:30 40.6 °F 36.8 °F 30.22 in Calm   6.0 mph 86% 0.00 in 0.00 W/m2
02:35 40.6 °F 36.8 °F 30.22 in East 1.0 mph 8.0 mph 86% 0.00 in 0.00 W/m2
02:40 40.6 °F 36.8 °F 30.22 in Calm   4.0 mph 86% 0.00 in 0.00 W/m2
02:45 40.5 °F 36.7 °F 30.22 in Calm   7.0 mph 86% 0.00 in 0.00 W/m2
02:50 40.5 °F 36.7 °F 30.22 in Calm   9.0 mph 86% 0.00 in 0.00 W/m2
02:55 40.5 °F 36.7 °F 30.22 in Calm   8.0 mph 86% 0.00 in 0.00 W/m2
03:00 40.4 °F 36.5 °F 30.22 in Calm   7.0 mph 86% 0.00 in 0.00 W/m2
03:05 40.4 °F 36.5 °F 30.22 in Calm   8.0 mph 86% 0.00 in 0.00 W/m2
03:10 40.4 °F 36.5 °F 30.21 in East 4.0 mph 8.0 mph 86% 0.00 in 0.00 W/m2
03:15 40.4 °F 36.5 °F 30.21 in Calm   6.0 mph 86% 0.00 in 0.00 W/m2
03:20 40.4 °F 36.5 °F 30.22 in Calm   7.0 mph 86% 0.00 in 0.00 W/m2
03:25 40.4 °F 36.5 °F 30.22 in East 2.0 mph 7.0 mph 86% 0.00 in 0.00 W/m2
03:30 40.4 °F 36.5 °F 30.22 in Calm   6.0 mph 86% 0.00 in 0.00 W/m2
03:35 40.4 °F 36.5 °F 30.22 in Calm   7.0 mph 86% 0.00 in 0.00 W/m2
03:40 40.4 °F 36.5 °F 30.22 in East 4.0 mph 7.0 mph 86% 0.00 in 0.00 W/m2
03:45 40.4 °F 36.5 °F 30.22 in East 5.0 mph 7.0 mph 86% 0.00 in 0.00 W/m2
03:50 40.4 °F 36.5 °F 30.22 in East 6.0 mph 11.0 mph 86% 0.00 in 0.00 W/m2
03:55 40.4 °F 36.3 °F 30.22 in ESE 7.0 mph 11.0 mph 85% 0.00 in 0.00 W/m2
04:00 40.4 °F 36.3 °F 30.22 in East 4.0 mph 8.0 mph 85% 0.00 in 0.00 W/m2
04:05 40.4 °F 36.3 °F 30.22 in ESE 6.0 mph 9.0 mph 85% 0.00 in 0.00 W/m2
04:10 40.4 °F 36.3 °F 30.22 in Calm   11.0 mph 85% 0.00 in 0.00 W/m2
04:15 40.4 °F 36.3 °F 30.22 in East 7.0 mph 11.0 mph 85% 0.00 in 0.00 W/m2
04:20 40.4 °F 36.3 °F 30.22 in East 6.0 mph 11.0 mph 85% 0.00 in 0.00 W/m2
04:25 40.4 °F 36.3 °F 30.23 in East 2.0 mph 8.0 mph 85% 0.00 in 0.00 W/m2
04:30 40.4 °F 36.3 °F 30.23 in East 1.0 mph 9.0 mph 85% 0.00 in 0.00 W/m2
04:35 40.4 °F 36.3 °F 30.24 in Calm   8.0 mph 85% 0.00 in 0.00 W/m2
04:40 40.4 °F 36.3 °F 30.24 in East 2.0 mph 7.0 mph 85% 0.00 in 0.00 W/m2
04:45 40.4 °F 36.3 °F 30.24 in Calm   7.0 mph 85% 0.00 in 0.00 W/m2
04:50 40.3 °F 36.2 °F 30.24 in Calm   6.0 mph 85% 0.00 in 0.00 W/m2
04:55 40.3 °F 36.2 °F 30.23 in Calm   6.0 mph 85% 0.00 in 0.00 W/m2
05:00 40.3 °F 35.9 °F 30.23 in East 8.0 mph 8.0 mph 84% 0.00 in 0.00 W/m2
05:05 40.3 °F 35.9 °F 30.23 in Calm   11.0 mph 84% 0.00 in 0.00 W/m2
05:10 40.2 °F 35.8 °F 30.23 in ESE 7.0 mph 8.0 mph 84% 0.00 in 0.00 W/m2
05:15 40.2 °F 36.1 °F 30.24 in ESE 4.0 mph 8.0 mph 85% 0.00 in 0.00 W/m2
05:20 40.2 °F 35.8 °F 30.24 in Calm   8.0 mph 84% 0.00 in 0.00 W/m2
05:25 40.2 °F 35.8 °F 30.25 in Calm   6.0 mph 84% 0.00 in 0.00 W/m2
05:30 40.2 °F 35.8 °F 30.25 in Calm   7.0 mph 84% 0.00 in 0.00 W/m2
05:35 40.2 °F 35.8 °F 30.25 in Calm   4.0 mph 84% 0.00 in 0.00 W/m2
05:40 40.3 °F 35.9 °F 30.25 in Calm   6.0 mph 84% 0.00 in 0.00 W/m2
05:45 40.3 °F 35.9 °F 30.25 in Calm   6.0 mph 84% 0.00 in 0.00 W/m2
05:50 40.3 °F 35.9 °F 30.25 in Calm     84% 0.00 in 0.00 W/m2
05:55 40.2 °F 35.8 °F 30.25 in East 6.0 mph 7.0 mph 84% 0.00 in 0.00 W/m2
06:00 40.2 °F 35.8 °F 30.26 in Calm   8.0 mph 84% 0.00 in 0.00 W/m2
06:03 40.2 °F 35.8 °F 30.26 in Calm   7.0 mph 84% 0.00 in 0.00 W/m2
06:08 40.2 °F 35.8 °F 30.26 in Calm   6.0 mph 84% 0.00 in 0.00 W/m2
06:13 40.2 °F 35.8 °F 30.26 in East 4.0 mph 6.0 mph 84% 0.00 in 0.00 W/m2
06:18 40.2 °F 35.8 °F 30.26 in East 2.0 mph 6.0 mph 84% 0.00 in 0.00 W/m2
06:23 40.1 °F 35.7 °F 30.26 in East 6.0 mph 8.0 mph 84% 0.00 in 0.00 W/m2
06:28 40.1 °F 35.7 °F 30.26 in East 1.0 mph 8.0 mph 84% 0.00 in 0.00 W/m2
06:33 40.2 °F 35.8 °F 30.26 in Calm   9.0 mph 84% 0.00 in 0.00 W/m2
06:38 40.2 °F 35.8 °F 30.26 in ESE 6.0 mph 9.0 mph 84% 0.00 in 0.00 W/m2
06:43 40.2 °F 35.5 °F 30.27 in Calm   8.0 mph 83% 0.00 in 0.00 W/m2
06:48 40.2 °F 35.5 °F 30.26 in ESE 9.0 mph 9.0 mph 83% 0.00 in 0.00 W/m2
06:54 40.3 °F 35.6 °F 30.27 in ESE 5.0 mph 12.0 mph 83% 0.00 in 0.00 W/m2
06:59 40.4 °F 35.7 °F 30.27 in Calm   9.0 mph 83% 0.00 in 0.00 W/m2
07:04 40.4 °F 35.7 °F 30.27 in Calm   9.0 mph 83% 0.00 in 0.00 W/m2
07:09 40.4 °F 35.3 °F 30.27 in Calm   7.0 mph 82% 0.00 in 0.00 W/m2
07:14 40.4 °F 35.3 °F 30.27 in Calm   8.0 mph 82% 0.00 in 0.00 W/m2
07:19 40.5 °F 35.5 °F 30.27 in Calm   7.0 mph 82% 0.00 in 5.00 W/m2
07:29 40.6 °F 35.5 °F 30.27 in ESE 5.0 mph 5.0 mph 82% 0.00 in 11.00 W/m2
07:34 40.6 °F 35.8 °F 30.28 in Calm   6.0 mph 83% 0.00 in 12.00 W/m2
07:39 40.6 °F 35.5 °F 30.28 in Calm     82% 0.00 in 14.00 W/m2
07:45 40.6 °F 35.5 °F 30.28 in Calm     82% 0.00 in 21.00 W/m2
07:50 40.6 °F 35.5 °F 30.28 in Calm   4.0 mph 82% 0.00 in 33.00 W/m2
07:55 40.6 °F 35.5 °F 30.28 in ESE 2.0 mph 5.0 mph 82% 0.00 in 47.00 W/m2
08:00 40.5 °F 35.5 °F 30.27 in Calm   5.0 mph 82% 0.00 in 62.00 W/m2
08:05 40.6 °F 35.5 °F 30.28 in ESE 7.0 mph 7.0 mph 82% 0.00 in 77.00 W/m2
08:10 40.6 °F 35.5 °F 30.28 in East 2.0 mph 9.0 mph 82% 0.00 in 95.00 W/m2
08:15 40.7 °F 36.0 °F 30.28 in East 1.0 mph 8.0 mph 83% 0.00 in 113.00 W/m2
08:20 40.7 °F 36.0 °F 30.28 in Calm   7.0 mph 83% 0.00 in 116.00 W/m2
08:25 40.8 °F 35.7 °F 30.29 in ESE 1.0 mph 6.0 mph 82% 0.00 in 149.00 W/m2
08:30 40.9 °F 35.8 °F 30.29 in Calm   9.0 mph 82% 0.00 in 165.00 W/m2
08:35 41.1 °F 36.0 °F 30.29 in Calm   8.0 mph 82% 0.00 in 186.00 W/m2
08:40 41.2 °F 36.1 °F 30.29 in Calm   7.0 mph 82% 0.00 in 206.00 W/m2
08:45 41.4 °F 36.3 °F 30.28 in ESE 7.0 mph 8.0 mph 82% 0.00 in 223.00 W/m2
08:50 41.5 °F 36.4 °F 30.29 in ESE 8.0 mph 11.0 mph 82% 0.00 in 246.00 W/m2
08:55 41.7 °F 36.6 °F 30.29 in East 4.0 mph 6.0 mph 82% 0.00 in 258.00 W/m2
09:00 41.9 °F 36.8 °F 30.30 in ESE 1.0 mph 8.0 mph 82% 0.00 in 287.00 W/m2
09:05 42.2 °F 37.1 °F 30.30 in Calm   7.0 mph 82% 0.00 in 294.00 W/m2
09:10 42.5 °F 37.4 °F 30.30 in Calm   5.0 mph 82% 0.00 in 320.00 W/m2
09:15 42.7 °F 37.6 °F 30.30 in ESE 5.0 mph 6.0 mph 82% 0.00 in 329.00 W/m2
09:20 43.1 °F 38.3 °F 30.30 in Calm   4.0 mph 83% 0.00 in 345.00 W/m2
09:25 43.3 °F 38.5 °F 30.31 in Calm   6.0 mph 83% 0.00 in 352.00 W/m2
09:30 43.5 °F 38.4 °F 30.30 in Calm   5.0 mph 82% 0.00 in 376.00 W/m2
09:35 43.8 °F 38.7 °F 30.31 in Calm   4.0 mph 82% 0.00 in 394.00 W/m2
09:40 44.2 °F 39.1 °F 30.31 in Calm   5.0 mph 82% 0.00 in 399.00 W/m2
09:45 44.5 °F 39.0 °F 30.31 in Calm   6.0 mph 81% 0.00 in 404.00 W/m2
09:50 44.9 °F 39.4 °F 30.31 in Calm     81% 0.00 in 429.00 W/m2
09:55 45.3 °F 39.5 °F 30.31 in Calm     80% 0.00 in 441.00 W/m2
10:00 45.6 °F 39.5 °F 30.31 in Calm     79% 0.00 in 446.00 W/m2
10:05 45.9 °F 39.1 °F 30.32 in Calm     77% 0.00 in 457.00 W/m2
10:10 46.3 °F 39.2 °F 30.32 in Calm     76% 0.00 in 473.00 W/m2
10:15 46.7 °F 39.2 °F 30.32 in ESE 2.0 mph 4.0 mph 75% 0.00 in 487.00 W/m2
10:20 47.5 °F 37.8 °F 30.32 in Calm   4.0 mph 69% 0.00 in 503.00 W/m2
10:25 48.4 °F 36.8 °F 30.32 in Calm   2.0 mph 64% 0.00 in 515.00 W/m2
10:30 48.9 °F 37.7 °F 30.32 in Calm     65% 0.00 in 485.00 W/m2
10:33 49.2 °F 37.2 °F 30.32 in Calm     63% 0.00 in 501.00 W/m2
10:38 49.8 °F 38.1 °F 30.32 in Calm     64% 0.00 in 557.00 W/m2
10:43 50.1 °F 38.0 °F 30.32 in Calm     63% 0.00 in 490.00 W/m2
10:48 50.4 °F 36.6 °F 30.33 in Calm     59% 0.00 in 552.00 W/m2
10:54 50.7 °F 34.7 °F 30.33 in Calm     54% 0.00 in 526.00 W/m2
10:59 51.0 °F 36.3 °F 30.33 in Calm   5.0 mph 57% 0.00 in 566.00 W/m2
11:04 51.5 °F 32.0 °F 30.33 in Calm   6.0 mph 47% 0.00 in 575.00 W/m2
11:09 51.8 °F 31.7 °F 30.33 in East 1.0 mph 4.0 mph 46% 0.00 in 582.00 W/m2
11:14 52.2 °F 33.6 °F 30.32 in Calm     49% 0.00 in 589.00 W/m2
11:19 52.5 °F 33.4 °F 30.33 in Calm   4.0 mph 48% 0.00 in 598.00 W/m2
11:24 52.8 °F 34.7 °F 30.33 in East 4.0 mph 4.0 mph 50% 0.00 in 605.00 W/m2
11:29 53.2 °F 37.0 °F 30.33 in Calm   2.0 mph 54% 0.00 in 610.00 W/m2
11:34 53.4 °F 34.2 °F 30.33 in Calm   3.0 mph 48% 0.00 in 615.00 W/m2
11:39 53.7 °F 31.8 °F 30.33 in Calm   7.0 mph 43% 0.00 in 621.00 W/m2
11:44 53.9 °F 33.6 °F 30.34 in Calm   6.0 mph 46% 0.00 in 628.00 W/m2
11:49 54.1 °F 32.1 °F 30.34 in Calm   4.0 mph 43% 0.00 in 631.00 W/m2
11:54 54.3 °F 34.0 °F 30.34 in Calm   2.0 mph 46% 0.00 in 635.00 W/m2
11:59 54.4 °F 31.2 °F 30.34 in NW 1.0 mph 2.0 mph 41% 0.00 in 638.00 W/m2
12:04 54.5 °F 33.0 °F 30.33 in Calm     44% 0.00 in 642.00 W/m2
12:09 54.6 °F 32.6 °F 30.33 in Calm   2.0 mph 43% 0.00 in 645.00 W/m2
12:15 54.8 °F 35.5 °F 30.33 in NW 2.0 mph 4.0 mph 48% 0.00 in 647.00 W/m2
12:20 54.9 °F 33.4 °F 30.33 in NW 3.0 mph 4.0 mph 44% 0.00 in 649.00 W/m2
12:25 55.2 °F 35.9 °F 30.32 in NW 3.0 mph 4.0 mph 48% 0.00 in 650.00 W/m2
12:30 55.4 °F 35.0 °F 30.32 in Calm   4.0 mph 46% 0.00 in 650.00 W/m2
12:35 55.6 °F 33.5 °F 30.32 in Calm   2.0 mph 43% 0.00 in 652.00 W/m2
12:40 55.7 °F 32.4 °F 30.32 in Calm     41% 0.00 in 654.00 W/m2
12:45 56.0 °F 33.2 °F 30.32 in WNW 2.0 mph 5.0 mph 42% 0.00 in 654.00 W/m2
12:50 56.3 °F 32.3 °F 30.32 in WNW 1.0 mph 4.0 mph 40% 0.00 in 654.00 W/m2
12:55 56.6 °F 33.2 °F 30.32 in WNW 1.0 mph 4.0 mph 41% 0.00 in 654.00 W/m2
13:00 56.8 °F 34.6 °F 30.32 in WNW 2.0 mph 4.0 mph 43% 0.00 in 652.00 W/m2
13:05 56.9 °F 31.6 °F 30.32 in WNW 1.0 mph 2.0 mph 38% 0.00 in 650.00 W/m2
13:10 57.1 °F 31.8 °F 30.32 in WNW 1.0 mph 2.0 mph 38% 0.00 in 650.00 W/m2
13:15 57.3 °F 33.2 °F 30.32 in Calm   4.0 mph 40% 0.00 in 645.00 W/m2
13:20 57.5 °F 34.6 °F 30.32 in NW 2.0 mph 5.0 mph 42% 0.00 in 643.00 W/m2
13:25 57.7 °F 35.4 °F 30.32 in NW 2.0 mph 3.0 mph 43% 0.00 in 640.00 W/m2
13:30 58.0 °F 35.7 °F 30.31 in NW 3.0 mph 6.0 mph 43% 0.00 in 636.00 W/m2
13:35 58.4 °F 35.4 °F 30.31 in WNW 1.0 mph 7.0 mph 42% 0.00 in 633.00 W/m2
13:40 58.6 °F 37.3 °F 30.31 in WNW 4.0 mph 8.0 mph 45% 0.00 in 626.00 W/m2
13:45 58.8 °F 37.0 °F 30.31 in West 3.0 mph 6.0 mph 44% 0.00 in 622.00 W/m2
13:50 59.0 °F 35.3 °F 30.31 in West 2.0 mph 3.0 mph 41% 0.00 in 617.00 W/m2
13:55 59.1 °F 37.2 °F 30.31 in West 4.0 mph 4.0 mph 44% 0.00 in 610.00 W/m2
14:00 59.2 °F 36.7 °F 30.31 in West 3.0 mph 5.0 mph 43% 0.00 in 605.00 W/m2
14:05 59.4 °F 36.3 °F 30.31 in NW 4.0 mph 9.0 mph 42% 0.00 in 598.00 W/m2
14:10 59.5 °F 37.6 °F 30.31 in West 3.0 mph 7.0 mph 44% 0.00 in 591.00 W/m2
14:15 59.6 °F 39.4 °F 30.30 in NW 9.0 mph 9.0 mph 47% 0.00 in 584.00 W/m2
14:20 59.7 °F 36.6 °F 30.30 in WNW 3.0 mph 10.0 mph 42% 0.00 in 577.00 W/m2
14:25 59.8 °F 35.5 °F 30.30 in WNW 2.0 mph 5.0 mph 40% 0.00 in 570.00 W/m2
14:30 59.9 °F 35.5 °F 30.30 in Calm   5.0 mph 40% 0.00 in 561.00 W/m2
14:35 60.1 °F 37.5 °F 30.30 in WNW 2.0 mph 3.0 mph 43% 0.00 in 552.00 W/m2
14:40 60.2 °F 38.2 °F 30.30 in West 1.0 mph 5.0 mph 44% 0.00 in 543.00 W/m2
14:45 60.2 °F 37.0 °F 30.30 in Calm   4.0 mph 42% 0.00 in 534.00 W/m2
14:50 60.2 °F 38.2 °F 30.30 in WNW 1.0 mph 6.0 mph 44% 0.00 in 526.00 W/m2
14:55 60.3 °F 39.5 °F 30.29 in Calm   4.0 mph 46% 0.00 in 515.00 W/m2
15:00 60.3 °F 38.9 °F 30.29 in Calm   7.0 mph 45% 0.00 in 506.00 W/m2
15:05 60.4 °F 40.6 °F 30.29 in Calm   5.0 mph 48% 0.00 in 496.00 W/m2
15:10 60.5 °F 40.2 °F 30.29 in Calm   4.0 mph 47% 0.00 in 483.00 W/m2
15:15 60.5 °F 40.2 °F 30.29 in Calm   9.0 mph 47% 0.00 in 473.00 W/m2
15:20 60.4 °F 41.2 °F 30.29 in West 3.0 mph 4.0 mph 49% 0.00 in 462.00 W/m2
15:25 60.4 °F 39.5 °F 30.29 in West 2.0 mph 4.0 mph 46% 0.00 in 450.00 W/m2
15:30 60.3 °F 39.5 °F 30.29 in Calm   4.0 mph 46% 0.00 in 439.00 W/m2
15:35 60.3 °F 40.5 °F 30.29 in Calm     48% 0.00 in 425.00 W/m2
15:40 60.4 °F 40.1 °F 30.29 in West 3.0 mph 7.0 mph 47% 0.00 in 415.00 W/m2
15:45 60.4 °F 40.1 °F 30.29 in Calm   5.0 mph 47% 0.00 in 403.00 W/m2
15:50 60.4 °F 42.2 °F 30.29 in NW 1.0 mph 7.0 mph 51% 0.00 in 388.00 W/m2
15:55 60.4 °F 40.6 °F 30.29 in Calm   7.0 mph 48% 0.00 in 376.00 W/m2
15:56 60.4 °F 40.6 °F 30.29 in NNW 2.0 mph 2.0 mph 48% 0.00 in 376.00 W/m2
16:01 60.4 °F 40.6 °F 30.29 in Calm     48% 0.00 in 364.00 W/m2
16:06 60.4 °F 42.2 °F 30.29 in Calm     51% 0.00 in 350.00 W/m2
16:11 60.4 °F 40.6 °F 30.29 in Calm     48% 0.00 in 336.00 W/m2
16:16 60.3 °F 41.1 °F 30.29 in Calm     49% 0.00 in 320.00 W/m2
16:21 60.2 °F 41.0 °F 30.29 in Calm     49% 0.00 in 306.00 W/m2
16:26 60.2 °F 41.5 °F 30.29 in WNW 4.0 mph 7.0 mph 50% 0.00 in 294.00 W/m2
16:36 59.8 °F 41.1 °F 30.29 in Calm   6.0 mph 50% 0.00 in 260.00 W/m2
16:41 59.5 °F 40.9 °F 30.29 in Calm     50% 0.00 in 246.00 W/m2
16:46 59.4 °F 41.3 °F 30.29 in Calm     51% 0.00 in 230.00 W/m2
16:51 59.2 °F 41.1 °F 30.29 in Calm     51% 0.00 in 213.00 W/m2
16:56 59.0 °F 40.9 °F 30.29 in Calm     51% 0.00 in 200.00 W/m2
17:01 58.8 °F 41.7 °F 30.29 in Calm     53% 0.00 in 179.00 W/m2
17:06 58.5 °F 41.0 °F 30.30 in Calm     52% 0.00 in 163.00 W/m2
17:11 58.3 °F 40.8 °F 30.30 in Calm     52% 0.00 in 144.00 W/m2
17:16 58.2 °F 41.7 °F 30.29 in Calm     54% 0.00 in 90.00 W/m2
17:21 57.9 °F 42.3 °F 30.30 in NW 4.0 mph 6.0 mph 56% 0.00 in 102.00 W/m2
17:26 57.7 °F 42.1 °F 30.30 in Calm     56% 0.00 in 109.00 W/m2
17:31 57.5 °F 41.0 °F 30.30 in WNW 1.0 mph 5.0 mph 54% 0.00 in 97.00 W/m2
17:36 57.4 °F 40.9 °F 30.30 in Calm     54% 0.00 in 79.00 W/m2
17:41 57.3 °F 40.8 °F 30.30 in Calm     54% 0.00 in 69.00 W/m2
17:46 57.3 °F 40.8 °F 30.30 in Calm     54% 0.00 in 39.00 W/m2
17:51 57.2 °F 44.3 °F 30.30 in Calm     62% 0.00 in 25.00 W/m2
17:56 57.1 °F 44.6 °F 30.30 in Calm     63% 0.00 in 16.00 W/m2
18:01 56.9 °F 43.6 °F 30.31 in Calm     61% 0.00 in 12.00 W/m2
18:06 56.8 °F 44.3 °F 30.31 in Calm     63% 0.00 in 11.00 W/m2
18:11 56.5 °F 44.1 °F 30.31 in Calm     63% 0.00 in 9.00 W/m2
18:16 56.1 °F 43.7 °F 30.31 in NW 4.0 mph 5.0 mph 63% 0.00 in 5.00 W/m2
18:21 55.7 °F 43.3 °F 30.31 in Calm     63% 0.00 in 5.00 W/m2
18:26 55.2 °F 42.4 °F 30.31 in Calm   4.0 mph 62% 0.00 in 0.00 W/m2
18:28 55.0 °F 42.7 °F 30.31 in NW 3.0 mph 5.0 mph 63% 0.00 in 0.00 W/m2
18:33 54.5 °F 42.2 °F 30.31 in Calm   4.0 mph 63% 0.00 in 0.00 W/m2
18:38 54.1 °F 42.2 °F 30.31 in Calm     64% 0.00 in 0.00 W/m2
18:43 53.8 °F 41.5 °F 30.31 in Calm     63% 0.00 in 0.00 W/m2
18:48 53.5 °F 41.6 °F 30.31 in Calm     64% 0.00 in 0.00 W/m2
18:53 53.2 °F 41.8 °F 30.32 in Calm   5.0 mph 65% 0.00 in 0.00 W/m2
18:58 53.0 °F 42.0 °F 30.32 in Calm     66% 0.00 in 0.00 W/m2
19:03 52.8 °F 41.4 °F 30.32 in NNW 2.0 mph 6.0 mph 65% 0.00 in 0.00 W/m2
19:08 52.6 °F 42.0 °F 30.32 in Calm     67% 0.00 in 0.00 W/m2
19:13 52.5 °F 41.9 °F 30.32 in Calm     67% 0.00 in 0.00 W/m2
19:18 52.3 °F 41.7 °F 30.32 in Calm     67% 0.00 in 0.00 W/m2
19:23 52.2 °F 41.6 °F 30.32 in Calm     67% 0.00 in 0.00 W/m2
19:28 52.1 °F 41.5 °F 30.32 in Calm   5.0 mph 67% 0.00 in 0.00 W/m2
19:33 52.1 °F 41.1 °F 30.32 in Calm     66% 0.00 in 0.00 W/m2
19:38 52.0 °F 41.4 °F 30.32 in Calm     67% 0.00 in 0.00 W/m2
19:43 51.9 °F 41.7 °F 30.33 in Calm     68% 0.00 in 0.00 W/m2
19:48 51.8 °F 42.0 °F 30.33 in Calm     69% 0.00 in 0.00 W/m2
19:53 51.7 °F 41.5 °F 30.33 in Calm     68% 0.00 in 0.00 W/m2
19:58 51.6 °F 41.4 °F 30.33 in Calm     68% 0.00 in 0.00 W/m2
20:03 51.5 °F 41.3 °F 30.33 in Calm     68% 0.00 in 0.00 W/m2
20:08 51.2 °F 41.4 °F 30.33 in Calm     69% 0.00 in 0.00 W/m2
20:19 50.7 °F 41.3 °F 30.33 in Calm     70% 0.00 in 0.00 W/m2
20:21 50.6 °F 41.2 °F 30.33 in Calm     70% 0.00 in 0.00 W/m2
20:26 50.4 °F 41.0 °F 30.33 in Calm     70% 0.00 in 0.00 W/m2
20:27 50.3 °F 40.9 °F 30.33 in Calm     70% 0.00 in 0.00 W/m2
20:30 50.3 °F 40.9 °F 30.34 in Calm     70% 0.00 in 0.00 W/m2
20:35 50.1 °F 41.1 °F 30.33 in Calm     71% 0.00 in 0.00 W/m2
20:40 50.0 °F 41.0 °F 30.34 in Calm     71% 0.00 in 0.00 W/m2
20:45 50.0 °F 41.0 °F 30.34 in Calm     71% 0.00 in 0.00 W/m2
20:50 50.0 °F 41.0 °F 30.34 in Calm     71% 0.00 in 0.00 W/m2
20:55 49.9 °F 40.9 °F 30.34 in Calm     71% 0.00 in 0.00 W/m2
20:56 49.9 °F 40.9 °F 30.34 in Calm     71% 0.00 in 0.00 W/m2
21:01 49.9 °F 41.2 °F 30.34 in Calm     72% 0.00 in 0.00 W/m2
21:06 49.8 °F 41.2 °F 30.34 in Calm     72% 0.00 in 0.00 W/m2
21:11 49.8 °F 41.5 °F 30.34 in Calm     73% 0.00 in 0.00 W/m2
21:16 49.8 °F 41.9 °F 30.34 in Calm     74% 0.00 in 0.00 W/m2
21:21 49.7 °F 41.4 °F 30.35 in Calm     73% 0.00 in 0.00 W/m2
21:26 49.7 °F 41.4 °F 30.35 in Calm     73% 0.00 in 0.00 W/m2
21:31 49.6 °F 41.0 °F 30.35 in Calm     72% 0.00 in 0.00 W/m2
21:36 49.6 °F 41.7 °F 30.35 in Calm     74% 0.00 in 0.00 W/m2
21:41 49.5 °F 41.2 °F 30.35 in Calm     73% 0.00 in 0.00 W/m2
21:46 49.5 °F 41.6 °F 30.34 in Calm     74% 0.00 in 0.00 W/m2
21:51 49.4 °F 41.5 °F 30.35 in Calm     74% 0.00 in 0.00 W/m2
21:56 49.4 °F 41.1 °F 30.35 in Calm     73% 0.00 in 0.00 W/m2
22:01 49.3 °F 41.4 °F 30.35 in Calm     74% 0.00 in 0.00 W/m2
22:06 49.3 °F 41.4 °F 30.35 in Calm     74% 0.00 in 0.00 W/m2
22:11 49.2 °F 41.3 °F 30.35 in Calm     74% 0.00 in 0.00 W/m2
22:16 49.2 °F 41.6 °F 30.35 in Calm     75% 0.00 in 0.00 W/m2
22:19 49.2 °F 41.6 °F 30.35 in Calm     75% 0.00 in 0.00 W/m2
22:24 49.2 °F 41.6 °F 30.35 in Calm     75% 0.00 in 0.00 W/m2
22:29 49.2 °F 41.6 °F 30.35 in Calm     75% 0.00 in 0.00 W/m2
22:34 49.1 °F 41.5 °F 30.35 in Calm     75% 0.00 in 0.00 W/m2
22:39 49.0 °F 41.4 °F 30.35 in Calm     75% 0.00 in 0.00 W/m2
22:44 49.0 °F 41.1 °F 30.35 in Calm     74% 0.00 in 0.00 W/m2
22:49 48.9 °F 41.3 °F 30.35 in Calm     75% 0.00 in 0.00 W/m2
22:54 48.9 °F 41.3 °F 30.35 in Calm     75% 0.00 in 0.00 W/m2
23:00 48.9 °F 41.3 °F 30.35 in Calm     75% 0.00 in 0.00 W/m2
23:05 48.8 °F 41.2 °F 30.35 in Calm     75% 0.00 in 0.00 W/m2
23:10 48.8 °F 41.2 °F 30.35 in Calm     75% 0.00 in 0.00 W/m2
23:15 48.8 °F 41.6 °F 30.35 in Calm     76% 0.00 in 0.00 W/m2
23:20 48.8 °F 41.2 °F 30.35 in Calm     75% 0.00 in 0.00 W/m2
23:25 48.7 °F 41.5 °F 30.35 in Calm     76% 0.00 in 0.00 W/m2
23:30 48.7 °F 41.5 °F 30.35 in Calm     76% 0.00 in 0.00 W/m2
23:35 48.6 °F 41.4 °F 30.35 in Calm     76% 0.00 in 0.00 W/m2
23:40 48.6 °F 41.4 °F 30.35 in Calm     76% 0.00 in 0.00 W/m2
23:50 48.6 °F 41.7 °F 30.35 in Calm     77% 0.00 in 0.00 W/m2
23:55 48.5 °F 41.6 °F 30.35 in Calm     77% 0.00 in 0.00 W/m2
Foresthill Weather
 WU-history PHP script courtesy of   Juneau County Weather.
powered by Cumulus v1.9.3 (1059)
Ambient Weather VWS v14.00
Top Contact Website Map Copyright © 2007 - 2018 Foresthillweather.com Never base important decisions on this or any weather information obtained from the Internet